createdAt,value
2023-05-28T00:01:33.402Z,21.56
2023-05-28T00:04:01.054Z,21.53
2023-05-28T00:06:28.755Z,21.50
2023-05-28T00:08:56.818Z,21.48
2023-05-28T00:11:24.783Z,21.46
2023-05-28T00:13:52.387Z,21.43
2023-05-28T00:16:21.351Z,21.42
2023-05-28T00:18:48.958Z,21.39
2023-05-28T00:21:16.577Z,21.37
2023-05-28T00:23:44.771Z,21.35
2023-05-28T00:26:12.315Z,21.33
2023-05-28T00:28:39.884Z,21.32
2023-05-28T00:31:07.489Z,21.30
2023-05-28T00:33:36.648Z,21.28
2023-05-28T00:36:04.407Z,21.27
2023-05-28T00:38:32.525Z,21.24
2023-05-28T00:41:00.329Z,21.22
2023-05-28T00:43:27.992Z,21.20
2023-05-28T00:45:59.779Z,21.16
2023-05-28T00:48:27.555Z,21.15
2023-05-28T00:50:56.696Z,21.14
2023-05-28T00:53:25.839Z,21.10
2023-05-28T00:55:54.416Z,21.10
2023-05-28T00:58:23.076Z,21.08
2023-05-28T01:00:50.782Z,21.07
2023-05-28T01:03:19.178Z,21.05
2023-05-28T01:05:47.104Z,21.03
2023-05-28T01:08:16.427Z,21.00
2023-05-28T01:10:44.112Z,20.99
2023-05-28T01:13:13.002Z,20.97
2023-05-28T01:15:41.318Z,20.94
2023-05-28T01:18:09.330Z,20.93
2023-05-28T01:20:37.489Z,20.90
2023-05-28T01:23:08.890Z,20.89
2023-05-28T01:25:39.427Z,20.88
2023-05-28T01:28:13.874Z,20.86
2023-05-28T01:30:41.534Z,20.85
2023-05-28T01:33:09.340Z,20.83
2023-05-28T01:35:36.901Z,20.83
2023-05-28T01:38:05.510Z,20.81
2023-05-28T01:40:35.767Z,20.78
2023-05-28T01:43:05.587Z,20.77
2023-05-28T01:45:33.465Z,20.77
2023-05-28T01:48:01.153Z,20.76
2023-05-28T01:50:29.787Z,20.74
2023-05-28T01:52:57.363Z,20.73
2023-05-28T01:55:26.326Z,20.71
2023-05-28T01:57:53.911Z,20.69
2023-05-28T02:00:24.560Z,20.69
2023-05-28T02:02:53.173Z,20.67
2023-05-28T02:05:20.796Z,20.66
2023-05-28T02:07:48.398Z,20.65
2023-05-28T02:10:16.260Z,20.62
2023-05-28T02:12:43.818Z,20.59
2023-05-28T02:15:12.392Z,20.57
2023-05-28T02:17:41.496Z,20.54
2023-05-28T02:20:10.613Z,20.55
2023-05-28T02:22:38.507Z,20.53
2023-05-28T02:25:06.749Z,20.53
2023-05-28T02:27:34.339Z,20.51
2023-05-28T02:30:01.971Z,20.50
2023-05-28T02:32:29.607Z,20.48
2023-05-28T02:34:59.030Z,20.46
2023-05-28T02:37:27.527Z,20.43
2023-05-28T02:39:55.389Z,20.43
2023-05-28T02:42:22.987Z,20.42
2023-05-28T02:44:50.676Z,20.39
2023-05-28T02:47:18.220Z,20.37
2023-05-28T02:49:45.850Z,20.37
2023-05-28T02:52:14.830Z,20.37
2023-05-28T02:54:42.434Z,20.37
2023-05-28T02:57:09.999Z,20.35
2023-05-28T02:59:37.613Z,20.35
2023-05-28T03:02:05.563Z,20.32
2023-05-28T03:04:33.569Z,20.30
2023-05-28T03:07:01.113Z,20.29
2023-05-28T03:09:30.088Z,20.28
2023-05-28T03:11:57.697Z,20.26
2023-05-28T03:14:25.381Z,20.27
2023-05-28T03:16:52.997Z,20.27
2023-05-28T03:19:21.363Z,20.24
2023-05-28T03:21:48.970Z,20.21
2023-05-28T03:24:16.651Z,20.17
2023-05-28T03:26:46.179Z,20.15
2023-05-28T03:29:13.824Z,20.12
2023-05-28T03:31:46.396Z,20.10
2023-05-28T03:34:14.417Z,20.10
2023-05-28T03:36:42.366Z,20.09
2023-05-28T03:39:09.976Z,20.06
2023-05-28T03:41:37.873Z,20.08
2023-05-28T03:44:07.246Z,20.06
2023-05-28T03:46:35.000Z,20.04
2023-05-28T03:49:02.691Z,20.05
2023-05-28T03:51:30.376Z,20.02
2023-05-28T03:53:57.945Z,20.03
2023-05-28T03:56:25.555Z,20.03
2023-05-28T03:58:53.117Z,20.02
2023-05-28T04:01:22.023Z,20.04
2023-05-28T04:03:49.732Z,20.04
2023-05-28T04:06:17.507Z,20.04
2023-05-28T04:08:45.127Z,20.04
2023-05-28T04:11:13.294Z,20.07
2023-05-28T04:13:41.617Z,20.10
2023-05-28T04:16:10.502Z,20.09
2023-05-28T04:18:40.442Z,20.08
2023-05-28T04:21:08.085Z,20.11
2023-05-28T04:23:36.737Z,20.10
2023-05-28T04:26:07.474Z,20.17
2023-05-28T04:28:35.114Z,20.20
2023-05-28T04:31:02.933Z,20.27
2023-05-28T04:33:30.661Z,20.31
2023-05-28T04:36:00.130Z,20.38
2023-05-28T04:38:30.031Z,20.54
2023-05-28T04:40:57.671Z,20.70
2023-05-28T04:43:25.341Z,20.96
2023-05-28T04:45:54.553Z,21.24
2023-05-28T04:48:22.322Z,21.46
2023-05-28T04:50:51.309Z,21.66
2023-05-28T04:53:20.453Z,21.83
2023-05-28T04:55:48.050Z,22.01
2023-05-28T04:58:16.606Z,22.17
2023-05-28T05:00:44.190Z,22.35
2023-05-28T05:03:11.824Z,22.62
2023-05-28T05:05:41.193Z,23.02
2023-05-28T05:08:10.080Z,23.63
2023-05-28T05:10:39.006Z,24.16
2023-05-28T05:13:06.618Z,24.54
2023-05-28T05:15:34.692Z,24.83
2023-05-28T05:18:02.475Z,25.07
2023-05-28T05:20:30.599Z,25.22
2023-05-28T05:22:58.854Z,25.19
2023-05-28T05:25:26.524Z,25.00
2023-05-28T05:27:55.447Z,24.69
2023-05-28T05:30:22.995Z,24.38
2023-05-28T05:32:50.792Z,24.12
2023-05-28T05:35:20.670Z,23.92
2023-05-28T05:37:48.908Z,23.77
2023-05-28T05:40:16.569Z,23.69
2023-05-28T05:42:45.130Z,23.62
2023-05-28T05:45:14.124Z,23.55
2023-05-28T05:47:42.181Z,23.53
2023-05-28T05:50:13.202Z,23.49
2023-05-28T05:52:41.863Z,23.51
2023-05-28T05:55:09.761Z,23.52
2023-05-28T05:57:37.683Z,23.50
2023-05-28T06:00:07.873Z,23.38
2023-05-28T06:02:38.664Z,23.27
2023-05-28T06:05:07.326Z,23.22
2023-05-28T06:07:35.003Z,23.20
2023-05-28T06:10:02.592Z,23.19
2023-05-28T06:12:30.179Z,23.17
2023-05-28T06:14:57.802Z,23.16
2023-05-28T06:17:25.423Z,23.17
2023-05-28T06:19:54.381Z,23.17
2023-05-28T06:22:21.977Z,23.17
2023-05-28T06:24:50.743Z,23.18
2023-05-28T06:27:18.371Z,23.19
2023-05-28T06:29:46.330Z,23.19
2023-05-28T06:32:14.203Z,23.18
2023-05-28T06:34:41.918Z,23.18
2023-05-28T06:37:11.120Z,23.20
2023-05-28T06:39:38.704Z,23.20
2023-05-28T06:42:08.123Z,23.21
2023-05-28T06:44:36.106Z,23.24
2023-05-28T06:47:03.823Z,23.26
2023-05-28T06:49:31.469Z,23.29
2023-05-28T06:51:59.040Z,23.32
2023-05-28T06:54:27.981Z,23.32
2023-05-28T06:56:55.827Z,23.35
2023-05-28T06:59:23.520Z,23.38
2023-05-28T07:01:51.285Z,23.41
2023-05-28T07:04:19.211Z,23.44
2023-05-28T07:06:46.855Z,23.48
2023-05-28T07:09:14.425Z,23.50
2023-05-28T07:11:43.383Z,23.53
2023-05-28T07:14:10.961Z,23.57
2023-05-28T07:16:38.665Z,23.58
2023-05-28T07:19:06.473Z,23.63
2023-05-28T07:21:34.240Z,23.66
2023-05-28T07:24:01.940Z,23.69
2023-05-28T07:26:29.514Z,23.70
2023-05-28T07:28:58.494Z,23.72
2023-05-28T07:31:26.274Z,23.76
2023-05-28T07:33:54.663Z,23.78
2023-05-28T07:36:22.239Z,23.81
2023-05-28T07:38:49.862Z,23.84
2023-05-28T07:41:17.605Z,23.86
2023-05-28T07:43:45.165Z,23.89
2023-05-28T07:46:15.326Z,23.91
2023-05-28T07:48:44.086Z,23.93
2023-05-28T07:51:12.163Z,23.96
2023-05-28T07:53:39.851Z,23.98
2023-05-28T07:56:08.039Z,23.98
2023-05-28T07:58:35.618Z,24.01
2023-05-28T08:01:03.188Z,24.04
2023-05-28T08:03:32.240Z,24.06
2023-05-28T08:05:59.993Z,24.07
2023-05-28T08:08:27.562Z,24.10
2023-05-28T08:10:55.148Z,24.11
2023-05-28T08:13:22.862Z,24.12
2023-05-28T08:15:50.565Z,24.14
2023-05-28T08:18:18.323Z,24.12
2023-05-28T08:20:47.542Z,23.97
2023-05-28T08:23:15.146Z,23.86
2023-05-28T08:25:42.690Z,23.77
2023-05-28T08:28:10.844Z,23.69
2023-05-28T08:30:38.601Z,23.63
2023-05-28T08:33:06.449Z,23.58
2023-05-28T08:35:34.106Z,23.59
2023-05-28T08:38:03.000Z,23.54
2023-05-28T08:40:33.235Z,23.50
2023-05-28T08:43:00.835Z,23.51
2023-05-28T08:45:30.413Z,23.48
2023-05-28T08:47:58.307Z,23.47
2023-05-28T08:50:27.544Z,23.45
2023-05-28T08:52:55.574Z,23.45
2023-05-28T08:55:24.510Z,23.41
2023-05-28T08:57:54.336Z,23.41
2023-05-28T09:00:23.953Z,23.44
2023-05-28T09:02:51.922Z,23.43
2023-05-28T09:05:19.709Z,23.44
2023-05-28T09:07:47.363Z,23.42
2023-05-28T09:10:15.153Z,23.39
2023-05-28T09:12:59.381Z,23.40
2023-05-28T09:15:27.200Z,23.38
2023-05-28T09:17:54.938Z,23.38
2023-05-28T09:20:23.129Z,23.39
2023-05-28T09:23:00.444Z,23.35
2023-05-28T09:25:29.449Z,23.34
2023-05-28T09:27:58.858Z,23.34
2023-05-28T09:30:26.494Z,23.35
2023-05-28T09:32:59.537Z,23.34
2023-05-28T09:35:28.200Z,23.34
2023-05-28T09:38:03.110Z,23.36
2023-05-28T09:40:30.799Z,23.35
2023-05-28T09:42:59.733Z,23.35
2023-05-28T09:45:29.103Z,23.35
2023-05-28T09:47:56.856Z,23.36
2023-05-28T09:50:24.612Z,23.36
2023-05-28T09:52:56.415Z,23.34
2023-05-28T09:55:26.622Z,23.32
2023-05-28T09:58:02.005Z,23.33
2023-05-28T10:00:34.549Z,23.33
2023-05-28T10:03:14.825Z,23.33
2023-05-28T10:05:45.862Z,23.32
2023-05-28T10:08:17.404Z,23.32
2023-05-28T10:10:47.158Z,23.32
2023-05-28T10:13:16.570Z,23.34
2023-05-28T10:15:45.189Z,23.34
2023-05-28T10:18:15.580Z,23.33
2023-05-28T10:20:43.593Z,23.34
2023-05-28T10:23:12.672Z,23.33
2023-05-28T10:25:40.242Z,23.34
2023-05-28T10:28:08.853Z,23.33
2023-05-28T10:30:39.010Z,23.33
2023-05-28T10:33:07.305Z,23.33
2023-05-28T10:35:36.717Z,23.35
2023-05-28T10:38:07.969Z,23.35
2023-05-28T10:40:36.752Z,23.35
2023-05-28T10:43:04.696Z,23.37
2023-05-28T10:45:42.064Z,23.35
2023-05-28T10:48:17.002Z,23.34
2023-05-28T10:50:58.385Z,23.36
2023-05-28T10:53:27.138Z,23.33
2023-05-28T10:55:56.135Z,23.36
2023-05-28T10:58:34.526Z,23.38
2023-05-28T11:01:06.628Z,23.40
2023-05-28T11:03:42.599Z,23.39
2023-05-28T11:06:11.430Z,23.39
2023-05-28T11:08:44.525Z,23.38
2023-05-28T11:11:17.889Z,23.37
2023-05-28T11:13:46.413Z,23.39
2023-05-28T11:16:18.014Z,23.37
2023-05-28T11:19:05.547Z,23.39
2023-05-28T11:21:33.924Z,23.39
2023-05-28T11:24:03.177Z,23.40
2023-05-28T11:26:31.220Z,23.40
2023-05-28T11:28:58.914Z,23.41
2023-05-28T11:31:28.570Z,23.41
2023-05-28T11:33:57.058Z,23.40
2023-05-28T11:36:24.756Z,23.42
2023-05-28T11:39:02.903Z,23.42
2023-05-28T11:41:31.312Z,23.42
2023-05-28T11:43:58.935Z,23.42
2023-05-28T11:46:28.019Z,23.42
2023-05-28T11:48:55.679Z,23.43
2023-05-28T11:51:23.548Z,23.44
2023-05-28T11:53:51.130Z,23.44
2023-05-28T11:56:18.710Z,23.44
2023-05-28T11:58:49.257Z,23.47
2023-05-28T12:01:17.546Z,23.45
2023-05-28T12:03:47.194Z,23.43
2023-05-28T12:06:20.396Z,23.44
2023-05-28T12:08:53.604Z,23.45
2023-05-28T12:11:27.410Z,23.46
2023-05-28T12:13:55.024Z,23.47
2023-05-28T12:16:22.704Z,23.49
2023-05-28T12:18:51.674Z,23.47
2023-05-28T12:21:21.327Z,23.48
2023-05-28T12:23:49.043Z,23.48
2023-05-28T12:26:17.012Z,23.48
2023-05-28T12:28:45.324Z,23.46
2023-05-28T12:31:12.953Z,23.48
2023-05-28T12:33:40.683Z,23.47
2023-05-28T12:36:10.994Z,23.47
2023-05-28T12:38:38.587Z,23.47
2023-05-28T12:41:06.366Z,23.47
2023-05-28T12:43:33.963Z,23.47
2023-05-28T12:46:01.617Z,23.45
2023-05-28T12:48:36.476Z,23.45
2023-05-28T12:51:04.437Z,23.47
2023-05-28T12:53:33.349Z,23.47
2023-05-28T12:56:01.106Z,23.49
2023-05-28T12:58:29.220Z,23.48
2023-05-28T13:00:57.026Z,23.49
2023-05-28T13:03:25.043Z,23.50
2023-05-28T13:05:53.932Z,23.51
2023-05-28T13:08:21.483Z,23.50
2023-05-28T13:10:50.777Z,23.49
2023-05-28T13:13:19.267Z,23.49
2023-05-28T13:15:46.920Z,23.48
2023-05-28T13:18:14.596Z,23.50
2023-05-28T13:20:42.465Z,23.49
2023-05-28T13:23:10.110Z,23.50
2023-05-28T13:25:38.212Z,23.52
2023-05-28T13:28:07.133Z,23.51
2023-05-28T13:30:35.071Z,23.52
2023-05-28T13:33:02.672Z,23.53
2023-05-28T13:35:30.358Z,23.54
2023-05-28T13:37:58.297Z,23.53
2023-05-28T13:40:26.005Z,23.53
2023-05-28T13:42:53.559Z,23.54
2023-05-28T13:45:22.770Z,23.55
2023-05-28T13:47:50.754Z,23.52
2023-05-28T13:50:18.520Z,23.54
2023-05-28T13:52:46.324Z,23.53
2023-05-28T13:55:13.934Z,23.54
2023-05-28T13:57:41.485Z,23.55
2023-05-28T14:00:11.662Z,23.58
2023-05-28T14:02:42.294Z,23.57
2023-05-28T14:05:10.753Z,23.58
2023-05-28T14:07:38.461Z,23.55
2023-05-28T14:10:06.672Z,23.57
2023-05-28T14:12:34.324Z,23.58
2023-05-28T14:15:02.159Z,23.57
2023-05-28T14:17:29.736Z,23.59
2023-05-28T14:19:58.718Z,23.57
2023-05-28T14:22:27.620Z,23.58
2023-05-28T14:24:55.188Z,23.60
2023-05-28T14:27:22.796Z,23.61
2023-05-28T14:29:50.405Z,23.60
2023-05-28T14:32:18.009Z,23.59
2023-05-28T14:34:46.160Z,23.64
2023-05-28T14:37:15.110Z,23.64
2023-05-28T14:39:42.826Z,23.65
2023-05-28T14:42:10.521Z,23.67
2023-05-28T14:44:38.180Z,23.66
2023-05-28T14:47:06.756Z,23.66
2023-05-28T14:49:34.508Z,23.66
2023-05-28T14:52:24.365Z,23.64
2023-05-28T14:54:51.806Z,23.69
2023-05-28T14:57:19.888Z,23.67
2023-05-28T14:59:47.571Z,23.65
2023-05-28T15:02:15.675Z,23.65
2023-05-28T15:04:45.240Z,23.64
2023-05-28T15:07:13.847Z,23.66
2023-05-28T15:09:42.746Z,23.66
2023-05-28T15:12:12.148Z,23.63
2023-05-28T15:14:39.772Z,23.66
2023-05-28T15:17:07.550Z,23.66
2023-05-28T15:19:36.653Z,23.65
2023-05-28T15:22:05.993Z,23.64
2023-05-28T15:24:35.718Z,23.65
2023-05-28T15:27:05.166Z,23.62
2023-05-28T15:29:33.088Z,23.64
2023-05-28T15:32:02.562Z,23.64
2023-05-28T15:34:30.769Z,23.66
2023-05-28T15:36:58.832Z,23.64
2023-05-28T15:39:26.816Z,23.65
2023-05-28T15:41:57.155Z,23.64
2023-05-28T15:44:26.635Z,23.66
2023-05-28T15:46:54.375Z,23.66
2023-05-28T15:49:22.042Z,23.63
2023-05-28T15:51:49.632Z,23.63
2023-05-28T15:54:17.356Z,23.58
2023-05-28T15:56:45.422Z,23.61
2023-05-28T15:59:13.259Z,23.63
2023-05-28T16:01:46.149Z,23.56
2023-05-28T16:04:14.441Z,23.55
2023-05-28T16:06:42.461Z,23.55
2023-05-28T16:09:10.560Z,23.57
2023-05-28T16:11:39.009Z,23.56
2023-05-28T16:14:07.389Z,23.57
2023-05-28T16:16:36.289Z,23.54
2023-05-28T16:19:05.778Z,23.55
2023-05-28T16:21:35.568Z,23.56
2023-05-28T16:24:03.339Z,23.56
2023-05-28T16:26:31.618Z,23.55
2023-05-28T16:28:59.383Z,23.56
2023-05-28T16:31:27.577Z,23.56
2023-05-28T16:33:58.647Z,23.54
2023-05-28T16:36:28.342Z,23.55
2023-05-28T16:38:56.125Z,23.53
2023-05-28T16:41:24.648Z,23.51
2023-05-28T16:43:52.867Z,23.48
2023-05-28T16:46:21.200Z,23.51
2023-05-28T16:48:49.644Z,23.50
2023-05-28T16:51:18.339Z,23.47
2023-05-28T16:53:49.839Z,23.48
2023-05-28T16:56:22.740Z,23.48
2023-05-28T16:58:50.361Z,23.44
2023-05-28T17:01:22.566Z,23.44
2023-05-28T17:03:50.440Z,23.42
2023-05-28T17:06:18.465Z,23.42
2023-05-28T17:08:47.495Z,23.40
2023-05-28T17:11:15.129Z,23.40
2023-05-28T17:13:43.446Z,23.41
2023-05-28T17:16:11.181Z,23.39
2023-05-28T17:18:39.722Z,23.35
2023-05-28T17:21:09.212Z,23.38
2023-05-28T17:23:36.912Z,23.37
2023-05-28T17:26:05.988Z,23.34
2023-05-28T17:28:33.640Z,23.34
2023-05-28T17:31:01.206Z,23.33
2023-05-28T17:33:28.783Z,23.34
2023-05-28T17:35:56.578Z,23.34
2023-05-28T17:38:24.313Z,23.32
2023-05-28T17:40:51.954Z,23.28
2023-05-28T17:43:20.843Z,23.24
2023-05-28T17:45:54.096Z,23.27
2023-05-28T17:48:22.634Z,23.26
2023-05-28T17:50:51.726Z,23.26
2023-05-28T17:53:19.538Z,23.28
2023-05-28T17:55:47.301Z,23.33
2023-05-28T17:58:14.902Z,23.34
2023-05-28T18:00:43.814Z,23.34
2023-05-28T18:03:11.442Z,23.36
2023-05-28T18:05:39.013Z,23.37
2023-05-28T18:08:06.689Z,23.38
2023-05-28T18:10:35.946Z,23.38
2023-05-28T18:13:03.613Z,23.39
2023-05-28T18:15:32.867Z,23.39
2023-05-28T18:18:01.877Z,23.39
2023-05-28T18:20:30.024Z,23.39
2023-05-28T18:22:57.650Z,23.37
2023-05-28T18:25:25.258Z,23.36
2023-05-28T18:27:52.825Z,23.34
2023-05-28T18:30:20.479Z,23.31
2023-05-28T18:32:48.112Z,23.31
2023-05-28T18:35:17.272Z,23.28
2023-05-28T18:37:44.834Z,23.26
2023-05-28T18:40:13.187Z,23.24
2023-05-28T18:42:40.749Z,23.23
2023-05-28T18:45:09.592Z,23.20
2023-05-28T18:47:37.564Z,23.20
2023-05-28T18:50:05.783Z,23.18
2023-05-28T18:52:34.729Z,23.17
2023-05-28T18:55:02.302Z,23.17
2023-05-28T18:57:29.882Z,23.15
2023-05-28T18:59:57.964Z,23.13
2023-05-28T19:02:26.220Z,23.13
2023-05-28T19:04:53.953Z,23.10
2023-05-28T19:07:25.887Z,23.08
2023-05-28T19:09:55.567Z,23.05
2023-05-28T19:12:23.312Z,23.05
2023-05-28T19:14:50.919Z,23.02
2023-05-28T19:17:18.454Z,23.02
2023-05-28T19:19:46.546Z,23.02
2023-05-28T19:22:14.128Z,22.99
2023-05-28T19:24:41.724Z,22.98
2023-05-28T19:27:10.776Z,22.96
2023-05-28T19:29:38.338Z,22.94
2023-05-28T19:32:06.478Z,22.92
2023-05-28T19:34:34.125Z,22.91
2023-05-28T19:37:01.797Z,22.91
2023-05-28T19:39:29.352Z,22.90
2023-05-28T19:41:56.926Z,22.87
2023-05-28T19:44:28.820Z,22.85
2023-05-28T19:46:56.610Z,22.85
2023-05-28T19:49:24.459Z,22.82
2023-05-28T19:51:52.396Z,22.83
2023-05-28T19:54:20.530Z,22.81
2023-05-28T19:56:48.143Z,22.79
2023-05-28T19:59:15.803Z,22.78
2023-05-28T20:01:46.465Z,22.76
2023-05-28T20:04:16.109Z,22.74
2023-05-28T20:06:43.835Z,22.74
2023-05-28T20:09:12.323Z,22.69
2023-05-28T20:11:40.134Z,22.70
2023-05-28T20:14:07.741Z,22.68
2023-05-28T20:16:37.362Z,22.68
2023-05-28T20:19:06.768Z,22.67
2023-05-28T20:21:34.376Z,22.69
2023-05-28T20:24:02.168Z,22.64
2023-05-28T20:26:29.784Z,22.64
2023-05-28T20:28:57.398Z,22.68
2023-05-28T20:31:25.084Z,22.66
2023-05-28T20:33:52.683Z,22.67
2023-05-28T20:36:22.055Z,22.66
2023-05-28T20:38:50.416Z,22.63
2023-05-28T20:41:18.552Z,22.63
2023-05-28T20:43:46.413Z,22.62
2023-05-28T20:46:14.018Z,22.60
2023-05-28T20:48:41.620Z,22.59
2023-05-28T20:51:09.547Z,22.57
2023-05-28T20:53:38.475Z,22.56
2023-05-28T20:56:07.280Z,22.55
2023-05-28T20:58:38.877Z,22.54
2023-05-28T21:01:06.679Z,22.53
2023-05-28T21:03:34.359Z,22.52
2023-05-28T21:06:01.965Z,22.51
2023-05-28T21:08:29.549Z,22.49
2023-05-28T21:10:58.440Z,22.47
2023-05-28T21:13:26.010Z,22.46
2023-05-28T21:15:53.671Z,22.43
2023-05-28T21:18:21.376Z,22.42
2023-05-28T21:20:49.140Z,22.41
2023-05-28T21:23:16.830Z,22.40
2023-05-28T21:25:45.319Z,22.38
2023-05-28T21:28:14.321Z,22.37
2023-05-28T21:30:41.896Z,22.37
2023-05-28T21:33:09.635Z,22.34
2023-05-28T21:35:37.257Z,22.33
2023-05-28T21:38:04.826Z,22.33
2023-05-28T21:40:32.410Z,22.32
2023-05-28T21:43:00.024Z,22.29
2023-05-28T21:45:28.922Z,22.28
2023-05-28T21:47:56.598Z,22.26
2023-05-28T21:50:25.609Z,22.25
2023-05-28T21:52:53.548Z,22.24
2023-05-28T21:55:21.158Z,22.22
2023-05-28T21:57:48.826Z,22.19
2023-05-28T22:00:17.186Z,22.20
2023-05-28T22:02:46.617Z,22.16
2023-05-28T22:05:14.820Z,22.15
2023-05-28T22:07:42.877Z,22.13
2023-05-28T22:10:11.368Z,22.12
2023-05-28T22:12:40.049Z,22.09
2023-05-28T22:15:08.958Z,22.08
2023-05-28T22:17:36.920Z,22.05
2023-05-28T22:20:10.279Z,22.04
2023-05-28T22:22:38.798Z,22.02
2023-05-28T22:25:07.936Z,21.99
2023-05-28T22:27:35.788Z,21.97
2023-05-28T22:30:04.171Z,21.95
2023-05-28T22:32:31.860Z,21.93
2023-05-28T22:34:59.467Z,21.90
2023-05-28T22:37:28.962Z,21.88
2023-05-28T22:39:56.553Z,21.87
2023-05-28T22:42:25.072Z,21.86
2023-05-28T22:44:52.662Z,21.84
2023-05-28T22:47:20.515Z,21.80
2023-05-28T22:49:48.090Z,21.77
2023-05-28T22:52:15.759Z,21.75
2023-05-28T22:54:45.051Z,21.73
2023-05-28T22:57:13.530Z,21.70
2023-05-28T22:59:41.309Z,21.68
2023-05-28T23:02:08.914Z,21.65
2023-05-28T23:04:37.121Z,21.65
2023-05-28T23:07:05.073Z,21.64
2023-05-28T23:09:33.029Z,21.63
2023-05-28T23:12:02.905Z,21.62
2023-05-28T23:14:30.699Z,21.59
2023-05-28T23:16:58.801Z,21.56
2023-05-28T23:19:27.917Z,21.55
2023-05-28T23:21:55.682Z,21.53
2023-05-28T23:24:23.298Z,21.51
2023-05-28T23:26:50.855Z,21.48
2023-05-28T23:29:20.721Z,21.48
2023-05-28T23:31:48.822Z,21.46
2023-05-28T23:34:18.622Z,21.43
2023-05-28T23:36:48.640Z,21.42
2023-05-28T23:39:20.515Z,21.41
2023-05-28T23:41:48.244Z,21.39
2023-05-28T23:44:16.212Z,21.37
2023-05-28T23:46:45.518Z,21.34
2023-05-28T23:49:15.161Z,21.33
2023-05-28T23:51:42.785Z,21.34
2023-05-28T23:54:10.345Z,21.34
2023-05-28T23:56:38.339Z,21.31
2023-05-28T23:59:06.003Z,21.28
